createdAt,value
2022-11-08T00:00:12.148Z,9.00
2022-11-08T00:02:38.938Z,9.00
2022-11-08T00:05:24.904Z,9.00
2022-11-08T00:08:10.546Z,8.90
2022-11-08T00:10:55.667Z,8.90
2022-11-08T00:13:40.609Z,8.90
2022-11-08T00:16:07.502Z,8.90
2022-11-08T00:18:34.202Z,8.88
2022-11-08T00:21:02.925Z,8.80
2022-11-08T00:23:29.739Z,8.80
2022-11-08T00:25:56.351Z,8.80
2022-11-08T00:28:23.032Z,8.80
2022-11-08T00:30:49.664Z,8.80
2022-11-08T00:33:16.336Z,8.78
2022-11-08T00:35:42.861Z,8.70
2022-11-08T00:38:09.430Z,8.70
2022-11-08T00:40:35.943Z,8.70
2022-11-08T00:43:02.470Z,8.70
2022-11-08T00:45:29.027Z,8.70
2022-11-08T00:47:55.593Z,8.68
2022-11-08T00:50:22.075Z,8.60
2022-11-08T00:52:48.625Z,8.60
2022-11-08T00:55:15.123Z,8.50
2022-11-08T00:57:58.521Z,8.50
2022-11-08T01:00:26.034Z,8.40
2022-11-08T01:03:12.535Z,8.40
2022-11-08T01:05:39.519Z,8.40
2022-11-08T01:08:06.169Z,8.34
2022-11-08T01:10:32.858Z,8.30
2022-11-08T01:12:59.560Z,8.30
2022-11-08T01:15:26.213Z,8.30
2022-11-08T01:17:52.759Z,8.26
2022-11-08T01:20:19.298Z,8.20
2022-11-08T01:22:45.879Z,8.20
2022-11-08T01:25:12.419Z,8.12
2022-11-08T01:27:38.973Z,8.10
2022-11-08T01:30:06.595Z,8.10
2022-11-08T01:32:33.645Z,8.00
2022-11-08T01:35:00.299Z,8.00
2022-11-08T01:37:26.809Z,8.00
2022-11-08T01:39:54.117Z,7.90
2022-11-08T01:42:32.132Z,7.90
2022-11-08T01:45:11.901Z,7.90
2022-11-08T01:47:38.419Z,7.84
2022-11-08T01:50:13.384Z,7.80
2022-11-08T01:52:51.943Z,7.80
2022-11-08T01:55:29.443Z,7.80
2022-11-08T01:58:14.542Z,7.80
2022-11-08T02:00:41.255Z,7.80
2022-11-08T02:03:13.512Z,7.70
2022-11-08T02:05:40.486Z,7.70
2022-11-08T02:08:16.952Z,7.70
2022-11-08T02:10:50.015Z,7.70
2022-11-08T02:13:24.881Z,7.70
2022-11-08T02:15:51.866Z,7.70
2022-11-08T02:18:22.397Z,7.70
2022-11-08T02:21:21.483Z,7.70
2022-11-08T02:23:52.646Z,7.70
2022-11-08T02:26:26.776Z,7.70
2022-11-08T02:28:54.154Z,7.68
2022-11-08T02:31:20.761Z,7.60
2022-11-08T02:33:49.230Z,7.60
2022-11-08T02:36:23.207Z,7.60
2022-11-08T02:38:57.807Z,7.60
2022-11-08T02:41:24.306Z,7.60
2022-11-08T02:43:50.859Z,7.58
2022-11-08T02:46:17.569Z,7.50
2022-11-08T02:48:45.782Z,7.50
2022-11-08T02:51:12.286Z,7.50
2022-11-08T02:53:38.798Z,7.50
2022-11-08T02:56:05.463Z,7.50
2022-11-08T02:58:32.067Z,7.50
2022-11-08T03:00:58.707Z,7.40
2022-11-08T03:03:25.279Z,7.40
2022-11-08T03:05:51.857Z,7.40
2022-11-08T03:08:18.572Z,7.40
2022-11-08T03:10:45.418Z,7.40
2022-11-08T03:13:11.916Z,7.30
2022-11-08T03:15:38.415Z,7.34
2022-11-08T03:18:05.235Z,7.30
2022-11-08T03:20:33.378Z,7.30
2022-11-08T03:23:05.548Z,7.30
2022-11-08T03:25:32.914Z,7.30
2022-11-08T03:28:04.874Z,7.30
2022-11-08T03:30:32.714Z,7.30
2022-11-08T03:32:59.350Z,7.30
2022-11-08T03:35:25.966Z,7.30
2022-11-08T03:37:55.841Z,7.22
2022-11-08T03:40:23.192Z,7.20
2022-11-08T03:42:50.257Z,7.20
2022-11-08T03:45:17.501Z,7.20
2022-11-08T03:47:47.094Z,7.20
2022-11-08T03:50:16.323Z,7.20
2022-11-08T03:52:45.836Z,7.20
2022-11-08T03:55:13.719Z,7.20
2022-11-08T03:57:41.768Z,7.20
2022-11-08T04:00:11.295Z,7.20
2022-11-08T04:02:38.423Z,7.20
2022-11-08T04:05:07.341Z,7.20
2022-11-08T04:07:34.228Z,7.20
2022-11-08T04:10:01.513Z,7.20
2022-11-08T04:12:46.719Z,7.18
2022-11-08T04:15:22.290Z,7.14
2022-11-08T04:18:11.378Z,7.12
2022-11-08T04:21:01.540Z,7.20
2022-11-08T04:23:30.565Z,7.20
2022-11-08T04:26:01.585Z,7.20
2022-11-08T04:28:31.452Z,7.20
2022-11-08T04:31:06.321Z,7.20
2022-11-08T04:33:33.311Z,7.20
2022-11-08T04:36:12.579Z,7.20
2022-11-08T04:38:39.163Z,7.20
2022-11-08T04:41:13.324Z,7.20
2022-11-08T04:43:40.640Z,7.20
2022-11-08T04:46:16.736Z,7.14
2022-11-08T04:48:44.950Z,7.10
2022-11-08T04:51:26.753Z,7.10
2022-11-08T04:53:57.471Z,7.10
2022-11-08T04:56:26.525Z,7.10
2022-11-08T04:58:56.915Z,7.10
2022-11-08T05:01:28.074Z,7.02
2022-11-08T05:03:55.677Z,7.00
2022-11-08T05:06:51.099Z,7.00
2022-11-08T05:09:17.744Z,7.00
2022-11-08T05:11:44.347Z,6.90
2022-11-08T05:14:11.018Z,6.90
2022-11-08T05:16:37.634Z,6.90
2022-11-08T05:19:06.960Z,6.90
2022-11-08T05:21:54.416Z,6.88
2022-11-08T05:24:21.058Z,6.80
2022-11-08T05:26:48.951Z,6.80
2022-11-08T05:29:16.772Z,6.80
2022-11-08T05:31:43.469Z,6.80
2022-11-08T05:34:10.137Z,6.80
2022-11-08T05:36:36.756Z,6.78
2022-11-08T05:39:03.760Z,6.78
2022-11-08T05:41:30.357Z,6.70
2022-11-08T05:43:57.467Z,6.70
2022-11-08T05:46:24.482Z,6.70
2022-11-08T05:48:52.109Z,6.70
2022-11-08T05:51:20.460Z,6.70
2022-11-08T05:53:48.707Z,6.68
2022-11-08T05:56:17.329Z,6.66
2022-11-08T05:58:45.433Z,6.70
2022-11-08T06:01:17.479Z,6.70
2022-11-08T06:03:44.902Z,6.70
2022-11-08T06:06:15.888Z,6.70
2022-11-08T06:08:47.498Z,6.70
2022-11-08T06:11:24.161Z,6.78
2022-11-08T06:13:53.149Z,6.80
2022-11-08T06:16:22.308Z,6.80
2022-11-08T06:18:49.707Z,6.80
2022-11-08T06:21:19.823Z,6.80
2022-11-08T06:23:47.296Z,6.80
2022-11-08T06:26:14.317Z,6.80
2022-11-08T06:28:41.000Z,6.80
2022-11-08T06:31:08.097Z,6.80
2022-11-08T06:33:35.402Z,6.80
2022-11-08T06:36:02.339Z,6.86
2022-11-08T06:38:29.720Z,6.90
2022-11-08T06:41:00.907Z,6.90
2022-11-08T06:43:28.119Z,6.90
2022-11-08T06:45:55.140Z,7.00
2022-11-08T06:48:21.677Z,7.10
2022-11-08T06:50:48.409Z,7.14
2022-11-08T06:53:15.353Z,7.20
2022-11-08T06:55:42.060Z,7.30
2022-11-08T06:58:10.911Z,7.40
2022-11-08T07:00:37.899Z,7.50
2022-11-08T07:03:04.652Z,7.60
2022-11-08T07:05:33.142Z,7.70
2022-11-08T07:08:00.972Z,7.70
2022-11-08T07:10:31.580Z,7.80
2022-11-08T07:13:13.695Z,7.90
2022-11-08T07:15:42.163Z,7.90
2022-11-08T07:18:14.758Z,8.00
2022-11-08T07:20:43.193Z,8.00
2022-11-08T07:23:11.156Z,8.00
2022-11-08T07:25:38.912Z,8.06
2022-11-08T07:28:12.009Z,8.10
2022-11-08T07:30:38.553Z,8.12
2022-11-08T07:33:05.041Z,8.16
2022-11-08T07:35:31.775Z,8.20
2022-11-08T07:37:58.387Z,8.20
2022-11-08T07:40:25.194Z,8.20
2022-11-08T07:45:39.573Z,8.14
2022-11-08T07:48:12.362Z,8.20
2022-11-08T07:50:42.045Z,8.30
2022-11-08T07:53:09.083Z,8.30
2022-11-08T07:55:37.727Z,8.40
2022-11-08T07:58:05.619Z,8.42
2022-11-08T08:00:38.851Z,8.50
2022-11-08T08:03:08.965Z,8.60
2022-11-08T08:05:39.723Z,8.70
2022-11-08T08:08:06.605Z,8.78
2022-11-08T08:10:34.273Z,8.80
2022-11-08T08:13:01.644Z,8.90
2022-11-08T08:15:28.669Z,9.00
2022-11-08T08:17:56.021Z,9.10
2022-11-08T08:20:22.631Z,9.20
2022-11-08T08:22:51.944Z,9.30
2022-11-08T08:25:19.344Z,9.30
2022-11-08T08:27:50.323Z,9.40
2022-11-08T08:30:18.312Z,9.50
2022-11-08T08:32:53.491Z,9.60
2022-11-08T08:35:24.442Z,9.70
2022-11-08T08:37:50.991Z,9.80
2022-11-08T08:40:17.637Z,9.82
2022-11-08T08:42:44.163Z,9.90
2022-11-08T08:45:14.921Z,10.00
2022-11-08T08:47:42.183Z,10.10
2022-11-08T08:50:09.606Z,10.12
2022-11-08T08:52:36.188Z,10.20
2022-11-08T08:55:02.734Z,10.30
2022-11-08T08:57:29.324Z,10.40
2022-11-08T09:02:43.510Z,10.60
2022-11-08T09:05:13.146Z,10.70
2022-11-08T09:07:40.714Z,10.90
2022-11-08T09:10:09.990Z,11.02
2022-11-08T09:12:37.767Z,11.30
2022-11-08T09:15:06.609Z,12.14
2022-11-08T09:17:33.504Z,13.16
2022-11-08T09:20:00.051Z,13.96
2022-11-08T09:22:26.689Z,14.50
2022-11-08T09:24:53.190Z,15.10
2022-11-08T09:27:19.887Z,15.50
2022-11-08T09:29:46.606Z,15.60
2022-11-08T09:32:13.291Z,15.70
2022-11-08T09:34:39.934Z,15.60
2022-11-08T09:37:06.508Z,15.50
2022-11-08T09:39:33.043Z,15.38
2022-11-08T09:42:23.962Z,15.50
2022-11-08T09:45:10.111Z,16.00
2022-11-08T09:47:40.841Z,16.16
2022-11-08T09:50:22.531Z,16.20
2022-11-08T09:53:46.909Z,16.10
2022-11-08T09:56:26.934Z,15.80
2022-11-08T09:59:01.976Z,15.60
2022-11-08T10:01:36.618Z,15.62
2022-11-08T10:04:15.388Z,16.26
2022-11-08T10:07:11.772Z,17.52
2022-11-08T10:10:12.900Z,18.78
2022-11-08T10:12:54.726Z,19.74
2022-11-08T10:15:30.286Z,19.80
2022-11-08T10:18:35.821Z,19.98
2022-11-08T10:21:21.096Z,20.52
2022-11-08T10:24:03.585Z,20.58
2022-11-08T10:26:38.036Z,20.16
2022-11-08T10:29:25.454Z,19.80
2022-11-08T10:32:02.668Z,19.60
2022-11-08T10:34:39.681Z,19.24
2022-11-08T10:37:11.387Z,18.84
2022-11-08T10:40:39.700Z,18.30
2022-11-08T10:43:13.761Z,17.60
2022-11-08T10:45:40.652Z,17.30
2022-11-08T10:48:11.408Z,17.30
2022-11-08T10:50:50.805Z,17.10
2022-11-08T10:53:24.911Z,16.90
2022-11-08T10:56:00.369Z,16.80
2022-11-08T10:58:39.536Z,16.80
2022-11-08T11:01:25.705Z,16.80
2022-11-08T11:03:53.403Z,16.90
2022-11-08T11:06:32.936Z,16.92
2022-11-08T11:09:18.212Z,16.90
2022-11-08T11:11:45.826Z,16.80
2022-11-08T11:14:23.377Z,16.80
2022-11-08T11:17:14.832Z,16.70
2022-11-08T11:19:52.747Z,16.68
2022-11-08T11:22:33.444Z,16.70
2022-11-08T11:25:13.915Z,16.70
2022-11-08T11:27:42.848Z,16.60
2022-11-08T11:30:33.289Z,16.50
2022-11-08T11:33:26.536Z,16.50
2022-11-08T11:36:10.741Z,16.50
2022-11-08T11:39:05.048Z,16.54
2022-11-08T11:41:53.727Z,16.60
2022-11-08T11:44:48.526Z,16.60
2022-11-08T11:47:24.662Z,16.50
2022-11-08T11:49:53.408Z,16.50
2022-11-08T11:52:20.351Z,16.50
2022-11-08T11:54:49.169Z,16.50
2022-11-08T11:57:35.325Z,16.50
2022-11-08T12:00:09.768Z,16.50
2022-11-08T12:03:16.644Z,16.50
2022-11-08T12:05:54.933Z,16.50
2022-11-08T12:08:45.261Z,16.50
2022-11-08T12:11:45.852Z,16.50
2022-11-08T12:14:30.030Z,16.50
2022-11-08T12:17:19.790Z,16.50
2022-11-08T12:19:49.331Z,16.50
2022-11-08T12:22:37.796Z,16.50
2022-11-08T12:25:26.402Z,16.50
2022-11-08T12:28:36.421Z,16.60
2022-11-08T12:31:26.260Z,16.70
2022-11-08T12:34:23.386Z,16.80
2022-11-08T12:37:17.805Z,16.80
2022-11-08T12:39:48.388Z,16.80
2022-11-08T12:42:37.615Z,16.90
2022-11-08T12:45:28.906Z,16.90
2022-11-08T12:48:20.153Z,16.90
2022-11-08T12:51:18.066Z,17.00
2022-11-08T12:54:33.580Z,17.00
2022-11-08T12:57:09.268Z,17.06
2022-11-08T12:59:45.814Z,17.10
2022-11-08T13:02:24.699Z,17.10
2022-11-08T13:05:02.355Z,17.00
2022-11-08T13:07:36.527Z,17.04
2022-11-08T13:10:21.576Z,17.16
2022-11-08T13:13:22.227Z,17.28
2022-11-08T13:16:26.047Z,17.30
2022-11-08T13:18:57.974Z,17.20
2022-11-08T13:21:27.803Z,17.20
2022-11-08T13:24:42.916Z,17.10
2022-11-08T13:27:38.431Z,17.08
2022-11-08T13:30:11.467Z,16.90
2022-11-08T13:33:03.352Z,16.80
2022-11-08T13:36:36.049Z,16.80
2022-11-08T13:40:01.681Z,16.70
2022-11-08T13:42:56.955Z,16.70
2022-11-08T13:45:32.784Z,16.70
2022-11-08T13:48:32.053Z,16.60
2022-11-08T13:51:26.870Z,16.52
2022-11-08T13:53:58.246Z,16.52
2022-11-08T13:56:46.288Z,16.50
2022-11-08T13:59:31.607Z,16.50
2022-11-08T14:02:01.182Z,16.50
2022-11-08T14:04:38.444Z,16.40
2022-11-08T14:07:38.124Z,16.40
2022-11-08T14:10:21.735Z,16.28
2022-11-08T14:13:37.628Z,16.20
2022-11-08T14:16:15.715Z,16.12
2022-11-08T14:18:44.379Z,16.10
2022-11-08T14:21:18.796Z,16.10
2022-11-08T14:23:50.267Z,16.10
2022-11-08T14:26:25.581Z,16.00
2022-11-08T14:28:54.129Z,15.90
2022-11-08T14:31:33.628Z,15.80
2022-11-08T14:34:01.935Z,15.80
2022-11-08T14:36:30.952Z,15.70
2022-11-08T14:39:17.542Z,15.60
2022-11-08T14:41:53.264Z,15.60
2022-11-08T14:44:19.994Z,15.50
2022-11-08T14:46:48.153Z,15.46
2022-11-08T14:49:15.639Z,15.40
2022-11-08T14:51:43.513Z,15.32
2022-11-08T14:54:25.080Z,15.30
2022-11-08T14:56:51.815Z,15.20
2022-11-08T14:59:18.952Z,15.20
2022-11-08T15:01:48.959Z,15.10
2022-11-08T15:04:19.285Z,15.10
2022-11-08T15:06:51.624Z,15.00
2022-11-08T15:09:31.150Z,15.00
2022-11-08T15:12:05.641Z,14.90
2022-11-08T15:14:36.084Z,14.82
2022-11-08T15:17:05.243Z,14.80
2022-11-08T15:19:31.772Z,14.70
2022-11-08T15:22:01.847Z,14.70
2022-11-08T15:24:37.686Z,14.60
2022-11-08T15:27:10.024Z,14.50
2022-11-08T15:29:54.517Z,14.50
2022-11-08T15:32:22.287Z,14.40
2022-11-08T15:34:54.871Z,14.40
2022-11-08T15:37:37.235Z,14.30
2022-11-08T15:40:15.697Z,14.30
2022-11-08T15:42:47.600Z,14.20
2022-11-08T15:45:14.108Z,14.10
2022-11-08T15:47:43.380Z,14.10
2022-11-08T15:50:25.710Z,14.00
2022-11-08T15:52:56.619Z,13.90
2022-11-08T15:55:29.588Z,13.90
2022-11-08T15:57:58.238Z,13.80
2022-11-08T16:00:38.408Z,13.70
2022-11-08T16:03:05.159Z,13.62
2022-11-08T16:05:32.249Z,13.60
2022-11-08T16:08:00.360Z,13.50
2022-11-08T16:10:46.084Z,13.50
2022-11-08T16:13:24.087Z,13.40
2022-11-08T16:15:50.877Z,13.30
2022-11-08T16:18:20.043Z,13.26
2022-11-08T16:20:47.036Z,13.20
2022-11-08T16:23:14.841Z,13.20
2022-11-08T16:25:51.167Z,13.10
2022-11-08T16:28:29.622Z,13.04
2022-11-08T16:30:57.508Z,13.00
2022-11-08T16:33:27.384Z,13.00
2022-11-08T16:35:56.405Z,12.90
2022-11-08T16:38:28.118Z,12.90
2022-11-08T16:40:55.119Z,12.80
2022-11-08T16:43:22.209Z,12.80
2022-11-08T16:46:06.244Z,12.70
2022-11-08T16:48:36.533Z,12.70
2022-11-08T16:51:06.497Z,12.60
2022-11-08T16:53:36.638Z,12.60
2022-11-08T16:56:03.427Z,12.60
2022-11-08T16:58:29.966Z,12.50
2022-11-08T17:00:57.301Z,12.50
2022-11-08T17:03:29.527Z,12.50
2022-11-08T17:05:57.757Z,12.40
2022-11-08T17:08:25.208Z,12.40
2022-11-08T17:10:53.489Z,12.40
2022-11-08T17:13:21.376Z,12.30
2022-11-08T17:15:49.652Z,12.30
2022-11-08T17:18:21.467Z,12.30
2022-11-08T17:20:48.233Z,12.20
2022-11-08T17:23:16.408Z,12.20
2022-11-08T17:25:44.556Z,12.10
2022-11-08T17:28:12.707Z,12.10
2022-11-08T17:30:44.832Z,12.10
2022-11-08T17:33:13.245Z,12.10
2022-11-08T17:35:43.853Z,12.10
2022-11-08T17:38:11.557Z,12.08
2022-11-08T17:40:38.375Z,12.10
2022-11-08T17:43:04.905Z,12.08
2022-11-08T17:45:31.459Z,12.04
2022-11-08T17:47:58.128Z,12.02
2022-11-08T17:50:24.826Z,12.00
2022-11-08T17:52:54.599Z,12.00
2022-11-08T17:55:21.258Z,12.00
2022-11-08T17:57:48.085Z,12.00
2022-11-08T18:00:15.584Z,12.00
2022-11-08T18:02:44.991Z,11.98
2022-11-08T18:05:12.200Z,11.90
2022-11-08T18:07:39.969Z,11.90
2022-11-08T18:10:07.143Z,11.90
2022-11-08T18:12:33.735Z,11.90
2022-11-08T18:15:00.311Z,11.90
2022-11-08T18:17:27.513Z,11.90
2022-11-08T18:19:54.026Z,11.90
2022-11-08T18:22:20.599Z,11.90
2022-11-08T18:24:49.923Z,11.90
2022-11-08T18:27:17.009Z,11.90
2022-11-08T18:29:43.703Z,11.90
2022-11-08T18:32:10.258Z,11.90
2022-11-08T18:34:37.034Z,11.84
2022-11-08T18:37:03.589Z,11.80
2022-11-08T18:39:30.241Z,11.80
2022-11-08T18:41:56.766Z,11.80
2022-11-08T18:44:23.403Z,11.80
2022-11-08T18:46:50.039Z,11.80
2022-11-08T18:49:16.774Z,11.80
2022-11-08T18:51:43.374Z,11.80
2022-11-08T18:54:10.169Z,11.80
2022-11-08T18:56:36.818Z,11.80
2022-11-08T18:59:03.417Z,11.80
2022-11-08T19:01:41.429Z,11.80
2022-11-08T19:04:08.516Z,11.80
2022-11-08T19:06:35.357Z,11.80
2022-11-08T19:09:02.079Z,11.72
2022-11-08T19:11:30.539Z,11.70
2022-11-08T19:13:58.314Z,11.70
2022-11-08T19:16:24.987Z,11.70
2022-11-08T19:18:51.685Z,11.70
2022-11-08T19:21:25.511Z,11.70
2022-11-08T19:23:57.150Z,11.70
2022-11-08T19:26:26.553Z,11.70
2022-11-08T19:28:57.405Z,11.70
2022-11-08T19:31:25.412Z,11.70
2022-11-08T19:33:54.185Z,11.70
2022-11-08T19:36:24.492Z,11.70
2022-11-08T19:38:52.477Z,11.62
2022-11-08T19:41:22.810Z,11.60
2022-11-08T19:43:50.170Z,11.60
2022-11-08T19:46:20.538Z,11.60
2022-11-08T19:48:50.091Z,11.60
2022-11-08T19:51:27.460Z,11.60
2022-11-08T19:53:56.149Z,11.60
2022-11-08T19:56:32.871Z,11.60
2022-11-08T19:59:09.813Z,11.60
2022-11-08T20:01:36.565Z,11.60
2022-11-08T20:04:07.352Z,11.60
2022-11-08T20:06:34.994Z,11.60
2022-11-08T20:09:04.305Z,11.60
2022-11-08T20:11:37.118Z,11.60
2022-11-08T20:14:05.039Z,11.60
2022-11-08T20:16:37.981Z,11.60
2022-11-08T20:19:11.947Z,11.60
2022-11-08T20:21:41.966Z,11.60
2022-11-08T20:24:10.926Z,11.60
2022-11-08T20:26:39.040Z,11.60
2022-11-08T20:29:07.230Z,11.60
2022-11-08T20:31:35.171Z,11.60
2022-11-08T20:34:05.590Z,11.50
2022-11-08T20:36:35.413Z,11.50
2022-11-08T20:39:06.825Z,11.50
2022-11-08T20:41:36.986Z,11.50
2022-11-08T20:44:04.248Z,11.50
2022-11-08T20:46:32.420Z,11.50
2022-11-08T20:49:00.810Z,11.40
2022-11-08T20:51:30.364Z,11.40
2022-11-08T20:53:58.997Z,11.40
2022-11-08T20:56:27.454Z,11.30
2022-11-08T20:58:54.089Z,11.30
2022-11-08T21:01:27.981Z,11.26
2022-11-08T21:03:55.900Z,11.20
2022-11-08T21:06:25.653Z,11.20
2022-11-08T21:09:08.359Z,11.10
2022-11-08T21:11:40.333Z,11.10
2022-11-08T21:14:07.323Z,11.08
2022-11-08T21:16:53.200Z,11.00
2022-11-08T21:19:22.783Z,11.00
2022-11-08T21:21:49.432Z,10.90
2022-11-08T21:24:17.113Z,10.90
2022-11-08T21:26:43.783Z,10.90
2022-11-08T21:29:10.414Z,10.80
2022-11-08T21:31:36.994Z,10.80
2022-11-08T21:34:03.590Z,10.80
2022-11-08T21:36:30.146Z,10.70
2022-11-08T21:38:56.696Z,10.70
2022-11-08T21:41:23.236Z,10.70
2022-11-08T21:43:49.909Z,10.70
2022-11-08T21:46:25.739Z,10.64
2022-11-08T21:48:58.153Z,10.60
2022-11-08T21:51:26.543Z,10.60
2022-11-08T21:53:56.028Z,10.60
2022-11-08T21:56:25.441Z,10.50
2022-11-08T21:58:52.618Z,10.50
2022-11-08T22:01:22.289Z,10.50
2022-11-08T22:03:52.771Z,10.50
2022-11-08T22:06:21.459Z,10.50
2022-11-08T22:08:48.992Z,10.50
2022-11-08T22:11:15.654Z,10.50
2022-11-08T22:13:42.163Z,10.50
2022-11-08T22:16:08.782Z,10.50
2022-11-08T22:18:58.713Z,10.50
2022-11-08T22:21:43.382Z,10.46
2022-11-08T22:24:13.982Z,10.40
2022-11-08T22:26:41.615Z,10.40
2022-11-08T22:29:08.941Z,10.40
2022-11-08T22:31:36.726Z,10.40
2022-11-08T22:34:04.103Z,10.34
2022-11-08T22:36:30.981Z,10.32
2022-11-08T22:38:58.141Z,10.32
2022-11-08T22:41:25.247Z,10.30
2022-11-08T22:43:52.397Z,10.30
2022-11-08T22:46:19.843Z,10.30
2022-11-08T22:48:46.913Z,10.30
2022-11-08T22:51:13.866Z,10.30
2022-11-08T22:53:41.529Z,10.30
2022-11-08T22:56:11.541Z,10.28
2022-11-08T22:58:38.935Z,10.20
2022-11-08T23:01:07.236Z,10.20
2022-11-08T23:03:33.919Z,10.20
2022-11-08T23:06:00.426Z,10.20
2022-11-08T23:08:27.689Z,10.20
2022-11-08T23:11:13.123Z,10.14
2022-11-08T23:13:59.470Z,10.10
2022-11-08T23:16:31.672Z,10.10
2022-11-08T23:19:17.887Z,10.08
2022-11-08T23:22:03.582Z,10.02
2022-11-08T23:24:31.598Z,10.00
2022-11-08T23:27:21.411Z,10.00
2022-11-08T23:30:07.320Z,10.00
2022-11-08T23:32:34.608Z,10.00
2022-11-08T23:35:01.435Z,9.90
2022-11-08T23:37:29.748Z,9.90
2022-11-08T23:40:15.207Z,9.90
2022-11-08T23:43:00.310Z,9.90
2022-11-08T23:45:26.979Z,9.90
2022-11-08T23:47:53.674Z,9.90
2022-11-08T23:50:20.841Z,9.84
2022-11-08T23:52:47.451Z,9.80
2022-11-08T23:55:14.148Z,9.80
2022-11-08T23:57:40.682Z,9.80
